Time;durP1;ratioP1;P1;durP2;ratioP2;P2;SDS_P1;SDS_P2;PMS_P1;PMS_P2;Temp;Humidity;BMP_temperature;BMP_pressure;BME280_temperature;BME280_humidity;BME280_pressure;Samples;Min_cycle;Max_cycle;Signal;HPM_P1;HPM_P2
2021/09/08 00:01:01;;;;;;;13.40;4.80;;;486.50;1408.00;;;;;;5073951;28;20036;-67
2021/09/08 00:03:26;;;;;;;8.88;4.68;;;486.50;1408.00;;;;;;5056058;28;20382;-67
2021/09/08 00:05:54;;;;;;;7.35;5.00;;;486.50;1408.00;;;;;;5073907;28;20036;-67
2021/09/08 00:08:20;;;;;;;12.23;4.63;;;486.60;1408.00;;;;;;5073652;28;20029;-67
2021/09/08 00:10:46;;;;;;;7.25;4.57;;;486.60;1408.00;;;;;;5073575;28;20021;-67
2021/09/08 00:13:11;;;;;;;7.60;4.70;;;486.50;1408.00;;;;;;5073526;28;20049;-67
2021/09/08 00:15:38;;;;;;;9.27;5.28;;;486.50;1408.00;;;;;;5073604;28;20027;-66
2021/09/08 00:18:04;;;;;;;6.90;4.25;;;486.50;1408.00;;;;;;5055763;28;20016;-67
2021/09/08 00:20:30;;;;;;;10.40;4.57;;;486.50;1408.00;;;;;;5073798;28;20021;-67
2021/09/08 00:22:56;;;;;;;10.57;4.82;;;486.50;1408.00;;;;;;5073761;28;20017;-67
2021/09/08 00:25:22;;;;;;;7.10;4.35;;;486.50;1408.00;;;;;;5073574;28;20024;-66
2021/09/08 00:27:48;;;;;;;14.27;4.85;;;486.50;1408.00;;;;;;5073639;28;20032;-67
2021/09/08 00:30:14;;;;;;;5.15;3.78;;;486.50;1408.00;;;;;;5073294;28;20422;-67
2021/09/08 00:32:41;;;;;;;7.85;4.47;;;486.50;1408.00;;;;;;5073434;28;20024;-67
2021/09/08 00:35:07;;;;;;;7.40;4.60;;;486.50;1408.00;;;;;;5073888;28;20051;-67
2021/09/08 00:37:37;;;;;;;8.35;4.60;;;486.50;1408.00;;;;;;5073608;28;20070;-66
2021/09/08 00:40:03;;;;;;;8.65;4.43;;;486.50;1408.00;;;;;;5055338;28;20057;-67
2021/09/08 00:42:28;;;;;;;7.35;4.15;;;486.50;1408.00;;;;;;5055096;28;20044;-67
2021/09/08 00:44:54;;;;;;;7.82;4.53;;;486.50;1408.00;;;;;;5073534;28;20023;-67
2021/09/08 00:47:20;;;;;;;11.38;4.78;;;486.50;1408.00;;;;;;5073515;28;20071;-66
2021/09/08 00:49:46;;;;;;;6.78;4.50;;;486.50;1408.00;;;;;;5073351;28;20385;-67
2021/09/08 00:52:13;;;;;;;8.45;4.68;;;486.40;1408.00;;;;;;5072959;28;20024;-67
2021/09/08 00:54:39;;;;;;;9.20;4.35;;;486.40;1433.60;;;;;;5073421;28;20029;-67
2021/09/08 00:57:10;;;;;;;6.35;4.40;;;461.60;1433.60;;;;;;5073407;28;20461;-67
2021/09/08 00:59:36;;;;;;;5.95;4.70;;;461.60;1433.60;;;;;;5073250;28;20024;-67
2021/09/08 01:02:04;;;;;;;8.48;4.90;;;461.50;1459.20;;;;;;5054439;28;20033;-67
2021/09/08 01:04:31;;;;;;;11.05;5.60;;;461.50;1459.20;;;;;;5073436;28;20462;-67
2021/09/08 01:07:01;;;;;;;10.07;4.85;;;461.50;1459.20;;;;;;5073179;28;20378;-67
2021/09/08 01:09:30;;;;;;;7.88;4.75;;;461.50;1459.20;;;;;;5072609;28;20033;-67
2021/09/08 01:11:59;;;;;;;7.95;4.35;;;461.40;1459.20;;;;;;5072764;28;20494;-67
2021/09/08 01:14:25;;;;;;;6.65;4.68;;;461.40;1459.20;;;;;;5073136;28;20494;-67
2021/09/08 01:16:53;;;;;;;12.40;5.13;;;461.40;1459.20;;;;;;5055085;28;20060;-67
2021/09/08 01:19:19;;;;;;;10.73;4.70;;;461.30;1484.80;;;;;;5074321;28;20035;-67
2021/09/08 01:21:45;;;;;;;10.10;5.10;;;461.30;1484.80;;;;;;5076950;28;20358;-67
2021/09/08 01:24:11;;;;;;;7.25;5.40;;;461.20;1484.80;;;;;;5076571;28;20033;-67
2021/09/08 01:26:39;;;;;;;12.55;5.22;;;461.20;1484.80;;;;;;5076791;28;20021;-67
2021/09/08 01:29:05;;;;;;;12.85;5.30;;;461.10;1484.80;;;;;;5076661;28;20029;-67
2021/09/08 01:31:31;;;;;;;10.88;5.57;;;461.10;1484.80;;;;;;5076538;28;20449;-66
2021/09/08 01:33:57;;;;;;;13.02;6.10;;;461.10;1510.40;;;;;;5076618;28;20043;-67
2021/09/08 01:36:23;;;;;;;12.13;5.43;;;461.10;1510.40;;;;;;5076557;28;20016;-67
2021/09/08 01:38:49;;;;;;;13.23;5.55;;;461.10;1510.40;;;;;;5058141;28;20543;-66
2021/09/08 01:41:15;;;;;;;10.82;5.57;;;461.10;1510.40;;;;;;5058127;28;20043;-67
2021/09/08 01:43:40;;;;;;;14.07;5.70;;;461.10;1510.40;;;;;;5076405;28;20094;-67
2021/09/08 01:46:06;;;;;;;10.73;5.50;;;461.00;1510.40;;;;;;5076156;28;20052;-67
2021/09/08 01:48:32;;;;;;;9.30;5.85;;;461.00;1510.40;;;;;;5076321;28;20043;-67
2021/09/08 01:50:58;;;;;;;7.80;5.05;;;461.00;1510.40;;;;;;5076239;28;20184;-66
2021/09/08 01:53:23;;;;;;;11.20;5.13;;;461.00;1510.40;;;;;;5075946;28;20033;-67
2021/09/08 01:55:50;;;;;;;10.82;5.43;;;460.90;1510.40;;;;;;5058198;28;20535;-67
2021/09/08 01:58:16;;;;;;;17.48;5.88;;;460.90;1536.00;;;;;;5057767;28;20093;-67
2021/09/08 02:00:43;;;;;;;10.93;5.60;;;460.80;1536.00;;;;;;5058254;28;20043;-67
2021/09/08 02:03:09;;;;;;;12.93;6.05;;;460.90;1536.00;;;;;;5076004;28;20119;-67
2021/09/08 02:05:35;;;;;;;11.43;5.72;;;460.90;1536.00;;;;;;5076207;28;20028;-67
2021/09/08 02:08:01;;;;;;;10.98;6.20;;;460.80;1536.00;;;;;;5076118;28;20403;-67
2021/09/08 02:10:27;;;;;;;10.95;5.60;;;460.80;1536.00;;;;;;5075979;28;20103;-66
2021/09/08 02:12:52;;;;;;;11.60;6.00;;;436.10;1510.40;;;;;;5075849;28;20079;-67
2021/09/08 02:15:18;;;;;;;15.70;5.65;;;460.80;1536.00;;;;;;5076186;28;20103;-67
2021/09/08 02:17:44;;;;;;;13.30;5.15;;;436.10;1510.40;;;;;;5057497;28;20684;-67
2021/09/08 02:20:10;;;;;;;9.38;5.78;;;436.10;1510.40;;;;;;5075270;28;20035;-67
2021/09/08 02:22:36;;;;;;;13.10;5.25;;;436.10;1510.40;;;;;;5076022;28;20073;-67
2021/09/08 02:25:01;;;;;;;9.77;5.20;;;436.10;1510.40;;;;;;5075835;28;20100;-67
2021/09/08 02:27:27;;;;;;;10.52;6.10;;;436.00;1536.00;;;;;;5057151;28;20117;-67
2021/09/08 02:29:53;;;;;;;13.43;6.07;;;436.00;1510.40;;;;;;5075529;28;20506;-66
2021/09/08 02:32:19;;;;;;;12.48;6.00;;;436.00;1510.40;;;;;;5075516;28;20021;-66
2021/09/08 02:34:45;;;;;;;11.57;5.63;;;436.10;1510.40;;;;;;5075700;28;20374;-67
2021/09/08 02:37:12;;;;;;;18.80;5.57;;;436.10;1510.40;;;;;;5075479;28;20016;-67
2021/09/08 02:39:37;;;;;;;14.52;6.00;;;436.00;1510.40;;;;;;5075706;28;20016;-67
2021/09/08 02:42:04;;;;;;;12.25;5.32;;;436.00;1510.40;;;;;;5075398;28;20025;-67
2021/09/08 02:44:29;;;;;;;6.70;5.38;;;436.00;1510.40;;;;;;5075687;28;20381;-67
2021/09/08 02:46:55;;;;;;;11.85;5.82;;;436.10;1510.40;;;;;;5075477;28;20024;-67
2021/09/08 02:49:21;;;;;;;13.07;6.45;;;436.00;1510.40;;;;;;5074717;28;20397;-66
2021/09/08 02:51:46;;;;;;;8.05;4.82;;;436.00;1510.40;;;;;;5075414;28;20033;-67
2021/09/08 02:54:12;;;;;;;10.02;5.43;;;436.00;1510.40;;;;;;5075555;28;20519;-67
2021/09/08 02:56:38;;;;;;;9.07;5.75;;;436.00;1510.40;;;;;;5075250;28;20025;-67
2021/09/08 02:59:03;;;;;;;12.90;5.88;;;436.00;1510.40;;;;;;5074850;28;20032;-67
2021/09/08 03:01:29;;;;;;;13.88;5.85;;;436.00;1536.00;;;;;;5075203;28;20076;-67
2021/09/08 03:03:55;;;;;;;11.85;6.38;;;436.00;1510.40;;;;;;5074678;28;20474;-67
2021/09/08 03:06:20;;;;;;;10.23;5.82;;;436.00;1510.40;;;;;;5074866;28;20453;-67
2021/09/08 03:08:46;;;;;;;13.10;6.35;;;435.90;1536.00;;;;;;5074691;28;20032;-67
2021/09/08 03:11:12;;;;;;;11.55;6.72;;;435.90;1536.00;;;;;;5075065;28;20028;-67
2021/09/08 03:13:37;;;;;;;12.27;6.80;;;435.90;1536.00;;;;;;5074585;28;20386;-67
2021/09/08 03:16:03;;;;;;;10.50;5.93;;;435.90;1536.00;;;;;;5074614;28;20035;-69
2021/09/08 03:18:29;;;;;;;8.35;6.13;;;435.90;1536.00;;;;;;5074863;28;20086;-66
2021/09/08 03:20:55;;;;;;;22.48;7.00;;;435.90;1536.00;;;;;;5074598;28;20377;-67
2021/09/08 03:23:20;;;;;;;17.48;6.57;;;435.90;1536.00;;;;;;5074725;28;20017;-73
2021/09/08 03:25:46;;;;;;;24.40;6.78;;;435.90;1510.40;;;;;;5074769;28;20028;-67
2021/09/08 03:28:12;;;;;;;13.75;6.72;;;436.00;1536.00;;;;;;5074716;28;20369;-67
2021/09/08 03:30:38;;;;;;;12.15;6.03;;;435.90;1510.40;;;;;;5074373;28;20162;-67
2021/09/08 03:33:03;;;;;;;7.63;5.53;;;436.00;1510.40;;;;;;5073737;28;20021;-67
2021/09/08 03:35:29;;;;;;;10.77;5.85;;;435.90;1510.40;;;;;;5073814;28;20386;-67
2021/09/08 03:37:55;;;;;;;10.80;5.85;;;435.90;1510.40;;;;;;5074413;28;20028;-67
2021/09/08 03:40:21;;;;;;;9.38;5.72;;;435.90;1510.40;;;;;;5074392;28;20103;-66
2021/09/08 03:42:47;;;;;;;11.55;6.75;;;435.90;1510.40;;;;;;5074196;28;20024;-66
2021/09/08 03:45:14;;;;;;;14.82;7.25;;;435.90;1510.40;;;;;;5074230;28;20028;-66
2021/09/08 03:47:40;;;;;;;9.95;6.63;;;435.90;1510.40;;;;;;5074150;28;20029;-67
2021/09/08 03:50:06;;;;;;;10.10;6.68;;;435.90;1510.40;;;;;;5074146;28;20028;-67
2021/09/08 03:52:33;;;;;;;14.27;6.57;;;435.90;1510.40;;;;;;5074199;28;20032;-67
2021/09/08 03:54:58;;;;;;;11.40;6.70;;;435.80;1510.40;;;;;;5056239;28;20025;-67
2021/09/08 03:57:24;;;;;;;10.52;6.50;;;435.90;1510.40;;;;;;5074191;28;20082;-67
2021/09/08 03:59:50;;;;;;;11.93;6.63;;;435.80;1484.80;;;;;;5073880;28;20034;-67
2021/09/08 04:02:15;;;;;;;12.10;5.82;;;435.90;1510.40;;;;;;5074141;28;20099;-67
2021/09/08 04:04:41;;;;;;;14.38;5.80;;;435.80;1510.40;;;;;;5073763;28;20355;-67
2021/09/08 04:07:07;;;;;;;20.17;7.28;;;435.80;1510.40;;;;;;5055412;28;20024;-66
2021/09/08 04:09:32;;;;;;;12.63;6.40;;;435.70;1510.40;;;;;;5073871;28;20078;-67
2021/09/08 04:11:58;;;;;;;13.32;6.07;;;435.70;1510.40;;;;;;5073553;28;20032;-67
2021/09/08 04:14:24;;;;;;;15.65;6.63;;;435.70;1510.40;;;;;;5073877;28;20032;-67
2021/09/08 04:16:49;;;;;;;17.17;6.68;;;435.70;1510.40;;;;;;5073617;28;20021;-67
2021/09/08 04:19:15;;;;;;;15.25;6.45;;;435.60;1510.40;;;;;;5073769;28;20028;-67
2021/09/08 04:21:41;;;;;;;10.65;6.05;;;435.60;1510.40;;;;;;5073772;28;20427;-67
2021/09/08 04:24:07;;;;;;;13.68;6.20;;;435.60;1510.40;;;;;;5073656;28;20025;-67
2021/09/08 04:26:33;;;;;;;12.93;6.05;;;435.60;1510.40;;;;;;5073176;28;20020;-67
2021/09/08 04:28:58;;;;;;;10.15;6.22;;;435.60;1510.40;;;;;;5055346;28;20049;-67
2021/09/08 04:31:24;;;;;;;12.60;5.60;;;435.60;1536.00;;;;;;5073779;28;20390;-67
2021/09/08 04:33:50;;;;;;;10.13;5.97;;;435.60;1536.00;;;;;;5073375;28;20082;-67
2021/09/08 04:36:16;;;;;;;16.95;6.50;;;435.60;1536.00;;;;;;5073642;28;20112;-67
2021/09/08 04:38:45;;;;;;;19.95;6.57;;;435.60;1510.40;;;;;;5055639;28;20025;-67
2021/09/08 04:41:14;;;;;;;10.98;5.88;;;435.60;1510.40;;;;;;5073445;28;20036;-67
2021/09/08 04:43:40;;;;;;;13.13;6.78;;;435.50;1536.00;;;;;;5073651;28;20035;-66
2021/09/08 04:46:06;;;;;;;11.93;6.88;;;435.50;1536.00;;;;;;5073518;28;20051;-67
2021/09/08 04:48:32;;;;;;;18.95;6.22;;;435.50;1536.00;;;;;;5073248;28;20052;-67
2021/09/08 04:50:58;;;;;;;15.23;6.07;;;435.50;1536.00;;;;;;5073299;28;20031;-67
2021/09/08 04:53:23;;;;;;;20.25;6.30;;;435.50;1536.00;;;;;;5073588;28;20031;-67
2021/09/08 04:55:49;;;;;;;19.98;6.18;;;435.50;1536.00;;;;;;5077354;28;20025;-67
2021/09/08 04:58:15;;;;;;;20.05;6.97;;;435.60;1561.60;;;;;;5077483;28;20496;-67
2021/09/08 05:00:41;;;;;;;24.45;6.50;;;435.50;1536.00;;;;;;5077342;28;20032;-66
2021/09/08 05:03:07;;;;;;;18.90;5.32;;;435.60;1561.60;;;;;;5076903;28;20025;-67
2021/09/08 05:05:32;;;;;;;13.70;5.47;;;435.60;1536.00;;;;;;5077466;28;20028;-67
2021/09/08 05:07:58;;;;;;;16.80;5.43;;;435.60;1536.00;;;;;;5077130;28;20035;-67
2021/09/08 05:10:24;;;;;;;15.02;5.55;;;435.60;1536.00;;;;;;5076446;28;20217;-66
2021/09/08 05:12:49;;;;;;;17.05;6.07;;;435.70;1536.00;;;;;;5076909;28;20074;-67
2021/09/08 05:15:16;;;;;;;10.10;5.10;;;435.70;1510.40;;;;;;5077227;28;20103;-67
2021/09/08 05:17:41;;;;;;;12.35;4.90;;;435.80;1510.40;;;;;;5077215;28;20085;-67
2021/09/08 05:20:08;;;;;;;13.02;4.80;;;435.80;1510.40;;;;;;5077091;28;20020;-67
2021/09/08 05:22:34;;;;;;;8.73;4.97;;;435.90;1510.40;;;;;;5076774;28;20048;-67
2021/09/08 05:25:00;;;;;;;12.68;5.10;;;435.90;1510.40;;;;;;5077068;28;20458;-67
2021/09/08 05:27:25;;;;;;;13.02;4.75;;;435.90;1510.40;;;;;;5076943;28;20117;-67
2021/09/08 05:29:51;;;;;;;8.23;5.07;;;435.90;1510.40;;;;;;5076954;28;20418;-68
2021/09/08 05:32:17;;;;;;;11.38;4.85;;;436.00;1510.40;;;;;;5076355;28;20070;-67
2021/09/08 05:34:43;;;;;;;12.73;4.75;;;436.00;1510.40;;;;;;5076772;28;20028;-67
2021/09/08 05:37:08;;;;;;;9.05;4.40;;;436.00;1484.80;;;;;;5076410;28;20033;-67
2021/09/08 05:39:34;;;;;;;8.88;4.15;;;436.10;1484.80;;;;;;5076843;28;20099;-66
2021/09/08 05:42:00;;;;;;;14.85;5.22;;;460.80;1510.40;;;;;;5076419;28;20020;-67
2021/09/08 05:44:25;;;;;;;9.30;4.57;;;460.80;1510.40;;;;;;5076722;28;20501;-67
2021/09/08 05:46:51;;;;;;;7.30;4.63;;;460.80;1510.40;;;;;;5058423;28;20016;-66
2021/09/08 05:49:17;;;;;;;11.95;4.85;;;460.80;1510.40;;;;;;5076398;28;20039;-67
2021/09/08 05:51:42;;;;;;;12.15;4.88;;;460.90;1510.40;;;;;;5058422;28;20101;-67
2021/09/08 05:54:08;;;;;;;9.15;4.78;;;460.90;1510.40;;;;;;5076331;28;20029;-67
2021/09/08 05:56:35;;;;;;;16.05;5.18;;;461.00;1484.80;;;;;;5076408;28;20099;-67
2021/09/08 05:59:01;;;;;;;20.00;4.63;;;461.00;1484.80;;;;;;5076277;28;20029;-66
2021/09/08 06:01:27;;;;;;;9.65;5.63;;;461.00;1510.40;;;;;;5076302;28;20099;-67
2021/09/08 06:03:53;;;;;;;11.05;5.28;;;461.10;1510.40;;;;;;5076250;28;20426;-67
2021/09/08 06:06:18;;;;;;;17.08;6.05;;;461.10;1484.80;;;;;;5075999;28;20097;-67
2021/09/08 06:08:44;;;;;;;10.93;5.15;;;461.10;1484.80;;;;;;5058157;28;20029;-67
2021/09/08 06:11:10;;;;;;;9.73;5.28;;;461.20;1484.80;;;;;;5076000;28;20104;-67
2021/09/08 06:13:36;;;;;;;15.07;5.15;;;461.20;1484.80;;;;;;5075779;28;20406;-67
2021/09/08 06:16:02;;;;;;;12.82;5.63;;;461.20;1484.80;;;;;;5075537;28;20112;-67
2021/09/08 06:18:28;;;;;;;17.92;6.70;;;461.20;1484.80;;;;;;5057491;28;20039;-67
2021/09/08 06:20:54;;;;;;;9.18;4.85;;;461.20;1484.80;;;;;;5076199;28;20052;-67
2021/09/08 06:23:19;;;;;;;10.35;4.70;;;461.30;1510.40;;;;;;5075967;28;20103;-67
2021/09/08 06:25:45;;;;;;;7.88;5.50;;;461.30;1510.40;;;;;;5075873;28;20059;-67
2021/09/08 06:28:11;;;;;;;11.95;5.03;;;461.40;1510.40;;;;;;5075908;28;20031;-67
2021/09/08 06:30:36;;;;;;;6.65;4.45;;;461.50;1510.40;;;;;;5057772;28;20040;-67
2021/09/08 06:33:02;;;;;;;8.38;4.47;;;461.50;1510.40;;;;;;5075859;28;20032;-67
2021/09/08 06:35:28;;;;;;;9.82;5.07;;;461.50;1510.40;;;;;;5075193;28;20354;-67
2021/09/08 06:37:54;;;;;;;9.05;4.25;;;461.60;1510.40;;;;;;5075222;28;20024;-67
2021/09/08 06:40:20;;;;;;;13.93;5.20;;;461.60;1510.40;;;;;;5075873;28;20035;-66
2021/09/08 06:42:45;;;;;;;11.82;4.60;;;461.60;1510.40;;;;;;5075560;28;20382;-67
2021/09/08 06:45:11;;;;;;;7.35;4.25;;;461.70;1510.40;;;;;;5075560;28;20036;-66
2021/09/08 06:47:37;;;;;;;10.77;4.70;;;486.40;1510.40;;;;;;5075140;28;20039;-67
2021/09/08 06:50:04;;;;;;;8.38;4.40;;;486.40;1510.40;;;;;;5075361;28;20486;-66
2021/09/08 06:52:30;;;;;;;10.90;4.65;;;486.50;1484.80;;;;;;5075532;28;20069;-66
2021/09/08 06:54:56;;;;;;;9.85;4.60;;;486.60;1484.80;;;;;;5075255;28;20470;-67
2021/09/08 06:57:22;;;;;;;8.90;4.13;;;486.60;1484.80;;;;;;5075141;28;20021;-67
2021/09/08 06:59:47;;;;;;;10.05;3.97;;;486.70;1484.80;;;;;;5074981;28;20023;-67
2021/09/08 07:02:13;;;;;;;11.20;4.07;;;486.80;1484.80;;;;;;5056657;28;20036;-67
2021/09/08 07:04:39;;;;;;;6.22;3.83;;;486.80;1484.80;;;;;;5075117;28;20028;-66
2021/09/08 07:07:05;;;;;;;7.85;4.07;;;486.90;1484.80;;;;;;5075128;28;20441;-66
2021/09/08 07:09:31;;;;;;;9.77;3.90;;;487.00;1459.20;;;;;;5075059;28;20037;-67
2021/09/08 07:11:57;;;;;;;7.53;3.83;;;487.10;1459.20;;;;;;5074998;28;20027;-67
2021/09/08 07:14:23;;;;;;;7.10;3.80;;;487.20;1459.20;;;;;;5074500;28;20500;-67
2021/09/08 07:16:48;;;;;;;14.35;5.00;;;487.30;1459.20;;;;;;5074155;28;20078;-67
2021/09/08 07:19:14;;;;;;;10.10;3.92;;;512.00;1459.20;;;;;;5075009;28;20025;-66
2021/09/08 07:21:40;;;;;;;10.13;4.53;;;512.10;1459.20;;;;;;5074787;28;20085;-66
2021/09/08 07:24:06;;;;;;;8.35;4.53;;;512.20;1433.60;;;;;;5074832;28;20107;-67
2021/09/08 07:26:34;;;;;;;8.88;3.70;;;512.40;1433.60;;;;;;5074758;28;20035;-66
2021/09/08 07:29:01;;;;;;;13.57;4.45;;;512.50;1433.60;;;;;;5074598;28;20028;-66
2021/09/08 07:31:27;;;;;;;7.82;3.70;;;512.70;1433.60;;;;;;5056078;28;20028;-66
2021/09/08 07:33:54;;;;;;;6.53;3.08;;;512.90;1408.00;;;;;;5074463;28;20029;-68
2021/09/08 07:36:20;;;;;;;7.45;3.17;;;537.60;1382.40;;;;;;5074361;28;20024;-68
2021/09/08 07:38:46;;;;;;;16.40;3.33;;;537.90;1356.80;;;;;;5066290;28;20029;-68
2021/09/08 07:41:13;;;;;;;4.70;2.70;;;538.10;1356.80;;;;;;5060765;28;20024;-68
2021/09/08 07:43:38;;;;;;;9.43;3.00;;;538.30;1356.80;;;;;;5062554;28;20076;-68
2021/09/08 07:46:04;;;;;;;9.35;3.35;;;538.50;1356.80;;;;;;5063257;28;20460;-68
2021/09/08 07:48:30;;;;;;;9.50;3.25;;;563.20;1356.80;;;;;;5066139;28;20048;-67
2021/09/08 07:50:56;;;;;;;7.75;3.25;;;563.40;1331.20;;;;;;5054037;28;20028;-68
2021/09/08 07:53:22;;;;;;;11.18;3.20;;;563.60;1331.20;;;;;;5061325;28;20382;-67
2021/09/08 07:55:48;;;;;;;16.30;3.42;;;563.80;1305.60;;;;;;5062508;28;20037;-68
2021/09/08 07:58:13;;;;;;;14.23;3.35;;;564.00;1254.40;;;;;;5071321;28;20025;-67
2021/09/08 08:00:39;;;;;;;8.55;2.80;;;588.80;1203.20;;;;;;5074120;28;20025;-68
2021/09/08 08:03:05;;;;;;;12.85;3.33;;;588.90;1228.80;;;;;;5073824;28;20519;-67
2021/09/08 08:05:33;;;;;;;7.70;2.78;;;589.00;1228.80;;;;;;5064042;28;20351;-68
2021/09/08 08:07:59;;;;;;;6.80;3.10;;;589.20;1254.40;;;;;;5065170;28;20044;-68
2021/09/08 08:10:26;;;;;;;8.90;3.22;;;589.30;1228.80;;;;;;5062316;28;20048;-68
2021/09/08 08:12:53;;;;;;;10.32;3.53;;;589.50;1228.80;;;;;;5054094;28;20049;-68
2021/09/08 08:15:19;;;;;;;18.17;3.97;;;589.70;1177.60;;;;;;5053663;28;20028;-69
2021/09/08 08:17:46;;;;;;;7.97;2.70;;;614.40;1177.60;;;;;;5053682;28;20029;-67
2021/09/08 08:20:12;;;;;;;10.75;2.95;;;614.40;1203.20;;;;;;5054064;28;20459;-68
2021/09/08 08:22:41;;;;;;;14.15;3.55;;;614.50;1177.60;;;;;;5053653;28;20425;-68
2021/09/08 08:25:09;;;;;;;8.45;3.38;;;614.70;1152.00;;;;;;5053724;28;20029;-68
2021/09/08 08:27:34;;;;;;;14.27;3.00;;;614.70;1152.00;;;;;;5053585;28;20129;-68
2021/09/08 08:30:01;;;;;;;8.35;3.10;;;614.80;1126.40;;;;;;5052536;28;20104;-67
2021/09/08 08:32:27;;;;;;;11.82;4.28;;;614.90;1126.40;;;;;;5053351;28;20044;-68
2021/09/08 08:34:53;;;;;;;7.40;3.30;;;615.00;1126.40;;;;;;5053629;28;20025;-69
2021/09/08 08:37:19;;;;;;;9.65;3.63;;;615.00;1126.40;;;;;;5053539;28;20382;-69
2021/09/08 08:39:46;;;;;;;14.95;3.88;;;615.20;1100.80;;;;;;5065562;28;20025;-69
2021/09/08 08:42:21;;;;;;;6.97;3.67;;;615.20;1100.80;;;;;;5073481;28;20020;-70
2021/09/08 08:44:48;;;;;;;18.27;4.15;;;615.30;1075.20;;;;;;5073412;28;20028;-69
2021/09/08 08:47:15;;;;;;;9.75;3.10;;;640.00;1075.20;;;;;;5073613;28;20029;-68
2021/09/08 08:49:42;;;;;;;39.33;9.48;;;640.20;1024.00;;;;;;5055047;28;20044;-69
2021/09/08 08:52:08;;;;;;;19.02;4.68;;;640.30;1024.00;;;;;;5072582;28;20031;-69
2021/09/08 08:54:34;;;;;;;13.65;4.18;;;640.30;998.40;;;;;;5073681;28;20024;-69
2021/09/08 08:57:00;;;;;;;15.40;3.35;;;640.50;998.40;;;;;;5073445;28;20021;-69
2021/09/08 08:59:26;;;;;;;14.98;4.50;;;640.70;972.80;;;;;;5073504;28;20028;-69
2021/09/08 09:01:51;;;;;;;10.60;4.07;;;640.80;972.80;;;;;;5073211;28;20047;-69
2021/09/08 09:04:17;;;;;;;18.48;4.30;;;640.90;972.80;;;;;;5073489;28;20067;-69
2021/09/08 09:06:48;;;;;;;7.10;3.25;;;665.60;972.80;;;;;;5073203;28;20070;-69
2021/09/08 09:09:16;;;;;;;9.63;3.63;;;665.70;972.80;;;;;;5073327;28;20037;-69
2021/09/08 09:11:44;;;;;;;13.40;2.95;;;665.80;972.80;;;;;;5073288;28;20031;-69
2021/09/08 09:14:12;;;;;;;12.38;3.35;;;665.90;947.20;;;;;;5073338;28;20041;-69
2021/09/08 09:16:40;;;;;;;15.35;3.88;;;666.00;972.80;;;;;;5073372;28;20028;-69
2021/09/08 09:19:10;;;;;;;15.98;3.70;;;666.10;921.60;;;;;;5071923;28;20027;-70
2021/09/08 09:21:36;;;;;;;32.75;4.55;;;666.20;921.60;;;;;;5073206;28;20054;-69
2021/09/08 09:24:04;;;;;;;15.27;4.90;;;666.30;921.60;;;;;;5072770;28;20517;-69
2021/09/08 09:26:33;;;;;;;8.73;4.07;;;666.40;921.60;;;;;;5072975;28;20021;-69
2021/09/08 09:29:18;;;;;;;10.65;3.97;;;666.40;921.60;;;;;;5072616;28;20043;-69
2021/09/08 09:31:56;;;;;;;10.43;3.75;;;666.50;921.60;;;;;;5072928;28;20174;-69
2021/09/08 09:34:23;;;;;;;9.50;3.00;;;691.30;870.40;;;;;;5070564;28;20705;-70
2021/09/08 09:36:54;;;;;;;8.77;3.53;;;691.30;844.80;;;;;;5071914;28;20449;-79
2021/09/08 09:39:21;;;;;;;9.15;4.03;;;691.40;844.80;;;;;;5073006;28;20020;-71
2021/09/08 09:41:47;;;;;;;16.15;3.72;;;691.40;844.80;;;;;;5076219;28;20028;-71
2021/09/08 09:44:14;;;;;;;12.23;3.45;;;691.50;844.80;;;;;;5076429;28;20405;-72
2021/09/08 09:46:42;;;;;;;12.57;4.07;;;691.50;819.20;;;;;;5076165;28;20078;-71
2021/09/08 09:49:09;;;;;;;12.98;4.22;;;691.60;844.80;;;;;;5076348;28;20037;-71
2021/09/08 09:51:35;;;;;;;10.55;4.40;;;691.60;844.80;;;;;;5076396;28;20370;-71
2021/09/08 09:54:00;;;;;;;8.05;4.35;;;691.60;870.40;;;;;;5076546;28;20107;-71
2021/09/08 09:56:26;;;;;;;9.30;4.05;;;691.70;844.80;;;;;;5076489;28;20108;-72
2021/09/08 09:58:52;;;;;;;7.10;4.40;;;691.70;870.40;;;;;;5074328;28;20058;-65
2021/09/08 10:01:19;;;;;;;16.67;4.55;;;691.70;844.80;;;;;;5076106;28;20381;-73
2021/09/08 10:03:45;;;;;;;7.68;3.50;;;691.70;844.80;;;;;;5076082;28;20107;-73
2021/09/08 10:06:11;;;;;;;7.28;3.90;;;691.70;844.80;;;;;;5075328;28;20021;-73
2021/09/08 10:08:43;;;;;;;14.60;4.22;;;691.80;844.80;;;;;;5076757;28;20070;-72
2021/09/08 10:11:12;;;;;;;6.63;3.20;;;691.80;819.20;;;;;;5075885;28;20025;-73
2021/09/08 10:13:45;;;;;;;5.43;3.40;;;691.90;819.20;;;;;;5075652;28;20069;-73
2021/09/08 10:16:12;;;;;;;11.55;3.55;;;691.90;793.60;;;;;;5075918;28;20032;-73
2021/09/08 10:18:41;;;;;;;10.43;3.50;;;692.00;793.60;;;;;;5056753;28;20037;-72
2021/09/08 10:21:08;;;;;;;5.43;3.45;;;692.10;793.60;;;;;;5073890;28;20029;-72
2021/09/08 10:23:39;;;;;;;5.50;3.08;;;716.80;819.20;;;;;;5075647;28;20024;-72
2021/09/08 10:26:13;;;;;;;7.95;3.10;;;716.80;819.20;;;;;;5075643;28;20035;-72
2021/09/08 10:28:41;;;;;;;10.73;3.35;;;716.80;819.20;;;;;;5075768;28;20427;-72
2021/09/08 10:31:09;;;;;;;10.73;3.30;;;716.80;819.20;;;;;;5075602;28;20382;-71
2021/09/08 10:33:43;;;;;;;7.10;3.13;;;692.00;819.20;;;;;;5057393;28;20044;-68
2021/09/08 10:36:15;;;;;;;9.35;3.20;;;692.00;819.20;;;;;;5075487;28;20095;-67
2021/09/08 10:38:41;;;;;;;7.05;3.20;;;692.00;819.20;;;;;;5075462;28;20020;-68
2021/09/08 10:41:08;;;;;;;9.38;3.67;;;692.10;793.60;;;;;;5075511;28;20021;-67
2021/09/08 10:43:38;;;;;;;6.60;3.55;;;692.10;793.60;;;;;;5075566;28;20062;-68
2021/09/08 10:46:08;;;;;;;7.18;3.72;;;692.10;793.60;;;;;;5075141;28;20024;-67
2021/09/08 10:48:36;;;;;;;9.65;3.28;;;692.10;793.60;;;;;;5057236;28;20029;-67
2021/09/08 10:51:04;;;;;;;8.60;3.30;;;692.10;793.60;;;;;;5075099;28;20032;-68
2021/09/08 10:53:31;;;;;;;5.28;3.63;;;716.80;819.20;;;;;;5067432;28;20031;-72
2021/09/08 10:55:58;;;;;;;7.57;3.35;;;716.80;819.20;;;;;;5038366;28;20386;-67
2021/09/08 10:58:44;;;;;;;10.85;3.40;;;716.80;844.80;;;;;;5052282;28;20021;-67
2021/09/08 11:01:17;;;;;;;6.65;3.17;;;716.80;844.80;;;;;;5051775;28;20478;-67
2021/09/08 11:03:43;;;;;;;7.05;3.63;;;692.10;819.20;;;;;;5061022;28;20033;-68
2021/09/08 11:06:08;;;;;;;10.18;3.88;;;716.80;844.80;;;;;;5063212;28;20028;-67
2021/09/08 11:08:34;;;;;;;11.63;3.30;;;692.10;819.20;;;;;;5065188;28;20016;-71
2021/09/08 11:11:19;;;;;;;13.80;3.50;;;692.10;844.80;;;;;;5065638;28;20476;-70
2021/09/08 11:13:53;;;;;;;4.65;3.17;;;692.00;819.20;;;;;;5064114;28;20506;-69
2021/09/08 11:16:19;;;;;;;8.93;3.40;;;692.00;819.20;;;;;;5061079;28;20028;-68
2021/09/08 11:18:45;;;;;;;5.63;3.42;;;692.10;819.20;;;;;;5065030;28;20028;-67
2021/09/08 11:21:11;;;;;;;13.00;3.13;;;692.10;844.80;;;;;;5044228;28;20078;-70
2021/09/08 11:23:37;;;;;;;13.32;3.72;;;716.80;870.40;;;;;;5064127;28;20024;-71
2021/09/08 11:26:09;;;;;;;8.02;3.17;;;716.80;844.80;;;;;;5065711;28;20021;-69
2021/09/08 11:28:36;;;;;;;13.82;5.25;;;716.90;819.20;;;;;;5059888;28;20371;-67
2021/09/08 11:31:18;;;;;;;11.40;4.53;;;717.00;793.60;;;;;;5046129;28;20107;-69
2021/09/08 11:33:44;;;;;;;11.68;5.05;;;717.10;793.60;;;;;;5063963;28;20024;-72
2021/09/08 11:36:12;;;;;;;11.52;4.35;;;717.10;793.60;;;;;;5062165;28;20091;-73
2021/09/08 11:38:46;;;;;;;12.00;4.45;;;717.20;793.60;;;;;;5045070;28;20482;-67
2021/09/08 11:41:12;;;;;;;;;;;717.10;793.60;;;;;;5059775;28;20017;-68
2021/09/08 11:43:47;;;;;;;7.75;3.40;;;717.20;793.60;;;;;;5063320;28;19950;-73
2021/09/08 11:46:17;;;;;;;24.90;4.00;;;717.10;819.20;;;;;;5042415;28;20367;-67
2021/09/08 11:48:54;;;;;;;6.90;3.53;;;717.20;793.60;;;;;;5062710;28;20036;-68
2021/09/08 11:51:24;;;;;;;8.70;3.42;;;717.20;793.60;;;;;;5060879;28;20031;-69
2021/09/08 11:53:52;;;;;;;6.20;3.47;;;717.30;793.60;;;;;;5061594;28;20526;-70
2021/09/08 11:56:21;;;;;;;5.25;3.60;;;717.20;793.60;;;;;;5045750;28;20029;-68
2021/09/08 11:58:52;;;;;;;6.15;3.33;;;717.30;793.60;;;;;;5064020;28;20028;-70
2021/09/08 12:01:18;;;;;;;40.25;4.65;;;717.20;819.20;;;;;;5061235;28;20021;-67
2021/09/08 12:03:56;;;;;;;7.72;3.30;;;717.20;819.20;;;;;;5063576;28;20060;-74
2021/09/08 12:06:24;;;;;;;6.65;3.70;;;717.20;819.20;;;;;;5045692;28;20053;-73
2021/09/08 12:08:53;;;;;;;9.98;4.80;;;717.20;819.20;;;;;;5056978;28;20074;-67
2021/09/08 12:11:39;;;;;;;7.88;4.00;;;717.20;819.20;;;;;;5053479;28;20112;-67
2021/09/08 12:14:20;;;;;;;15.90;4.40;;;717.20;819.20;;;;;;5053517;28;20041;-69